Time;durP1;ratioP1;P1;durP2;ratioP2;P2;SDS_P1;SDS_P2;PMS_P1;PMS_P2;Temp;Humidity;BMP_temperature;BMP_pressure;BME280_temperature;BME280_humidity;BME280_pressure;Samples;Min_cycle;Max_cycle;Signal;HPM_P1;HPM_P2
2023/01/13 00:00:55;;;;;;;1.73;0.87;;;;;;;8.18;89.52;96089.94;4978481;28;20265;-71
2023/01/13 00:03:22;;;;;;;1.83;0.93;;;;;;;8.13;89.59;96088.78;4978244;28;20195;-71
2023/01/13 00:05:48;;;;;;;3.47;1.00;;;;;;;8.21;89.06;96083.53;4977320;28;20199;-70
2023/01/13 00:08:16;;;;;;;3.20;1.30;;;;;;;8.37;88.65;96083.53;4977902;28;20297;-70
2023/01/13 00:10:46;;;;;;;2.53;1.07;;;;;;;8.44;88.84;96071.34;4978481;28;20268;-70
2023/01/13 00:13:13;;;;;;;2.60;0.93;;;;;;;8.27;89.30;96078.44;4978755;28;20219;-69
2023/01/13 00:15:39;;;;;;;1.27;0.70;;;;;;;8.27;89.05;96064.50;4977295;28;20272;-70
2023/01/13 00:18:05;;;;;;;1.73;0.97;;;;;;;8.22;89.26;96062.41;4978292;28;20227;-69
2023/01/13 00:20:32;;;;;;;1.37;0.80;;;;;;;8.25;88.88;96058.59;4977328;28;20203;-69
2023/01/13 00:22:59;;;;;;;5.43;0.80;;;;;;;8.27;88.64;96057.44;4977397;28;20203;-70
2023/01/13 00:25:27;;;;;;;1.80;1.00;;;;;;;8.24;89.23;96042.03;4977248;28;20217;-71
2023/01/13 00:27:54;;;;;;;0.60;0.60;;;;;;;8.21;88.66;96033.66;4978715;28;20230;-69
2023/01/13 00:30:20;;;;;;;1.60;0.90;;;;;;;8.21;88.76;96017.91;4977337;28;20254;-69
2023/01/13 00:32:47;;;;;;;1.63;0.80;;;;;;;8.25;88.88;96029.72;4978208;28;20227;-71
2023/01/13 00:35:13;;;;;;;2.00;0.70;;;;;;;8.21;88.37;96025.78;4977645;28;20207;-69
2023/01/13 00:37:39;;;;;;;1.37;0.90;;;;;;;8.26;87.85;96023.50;4977499;28;20226;-69
2023/01/13 00:40:07;;;;;;;1.90;0.70;;;;;;;8.30;87.98;96024.78;4977495;28;20207;-71
2023/01/13 00:45:19;;;;;;;0.90;0.70;;;;;;;8.25;87.79;96008.72;4976758;28;20238;-70
2023/01/13 00:47:45;;;;;;;1.77;0.80;;;;;;;8.28;87.61;96003.16;4977336;28;21043;-70
2023/01/13 00:50:12;;;;;;;2.40;0.77;;;;;;;8.17;87.78;96003.50;4977986;28;20203;-69
2023/01/13 00:52:38;;;;;;;2.20;0.70;;;;;;;8.25;87.91;95999.06;4978041;28;20203;-69
2023/01/13 00:55:06;;;;;;;2.57;0.90;;;;;;;8.22;88.02;95996.78;4976630;28;20219;-70
2023/01/13 00:57:32;;;;;;;3.50;0.87;;;;;;;8.13;88.31;95999.53;4977858;28;20726;-70
2023/01/13 01:00:00;;;;;;;1.27;0.50;;;;;;;8.36;87.15;95998.69;4977787;28;20739;-69
2023/01/13 01:02:26;;;;;;;0.80;0.60;;;;;;;8.32;87.68;95999.19;4977444;28;20604;-70
2023/01/13 01:04:53;;;;;;;1.23;0.67;;;;;;;8.25;87.00;95996.44;4977463;28;20667;-70
2023/01/13 01:07:19;;;;;;;0.80;0.60;;;;;;;8.21;87.01;95986.44;4977617;28;20273;-68
2023/01/13 01:09:46;;;;;;;2.40;0.90;;;;;;;8.26;86.91;95992.84;4977685;28;20203;-69
2023/01/13 01:12:13;;;;;;;1.60;0.80;;;;;;;8.30;86.84;95996.75;4977429;28;20199;-70
2023/01/13 01:14:39;;;;;;;2.40;0.70;;;;;;;8.36;86.76;95993.44;4976842;28;20343;-69
2023/01/13 01:17:07;;;;;;;1.63;0.80;;;;;;;8.39;86.05;95997.53;4977208;28;20223;-70
2023/01/13 01:19:36;;;;;;;2.40;0.60;;;;;;;8.30;86.45;95993.28;4977592;28;20207;-69
2023/01/13 01:22:02;;;;;;;1.47;0.60;;;;;;;8.28;86.70;95995.28;4977278;28;20199;-69
2023/01/13 01:24:29;;;;;;;6.57;1.07;;;;;;;8.27;86.52;95993.63;4976634;28;20722;-70
2023/01/13 01:26:55;;;;;;;0.60;0.47;;;;;;;8.31;86.04;95990.53;4977983;28;20223;-70
2023/01/13 01:29:22;;;;;;;0.50;0.50;;;;;;;8.32;85.84;95996.56;4977851;28;20262;-68
2023/01/13 01:31:48;;;;;;;3.63;0.70;;;;;;;8.37;86.02;96002.13;4977632;28;20203;-70
2023/01/13 01:34:16;;;;;;;3.77;0.83;;;;;;;8.40;85.54;95988.66;4976707;28;20215;-69
2023/01/13 01:36:42;;;;;;;2.03;0.70;;;;;;;8.38;85.31;96001.16;4979192;28;20243;-70
2023/01/13 01:39:09;;;;;;;1.40;0.70;;;;;;;8.39;85.22;96003.63;4981278;28;20203;-69
2023/01/13 01:41:36;;;;;;;0.60;0.60;;;;;;;8.46;85.25;95988.81;4981028;28;20250;-70
2023/01/13 01:44:07;;;;;;;1.37;0.70;;;;;;;8.55;84.94;95993.03;4979749;28;20203;-70
2023/01/13 01:46:36;;;;;;;2.43;0.73;;;;;;;8.50;85.42;95988.31;4981175;28;20223;-69
2023/01/13 01:49:08;;;;;;;3.80;0.70;;;;;;;8.48;85.59;95974.53;4980287;28;20195;-69
2023/01/13 01:51:41;;;;;;;0.93;0.60;;;;;;;8.44;85.96;95985.53;4981345;28;20208;-69
2023/01/13 01:54:11;;;;;;;1.97;0.90;;;;;;;8.43;85.94;95977.84;4980620;28;20273;-70
2023/01/13 01:56:41;;;;;;;3.60;0.63;;;;;;;8.40;85.79;95970.28;4981539;28;20704;-69
2023/01/13 01:59:08;;;;;;;8.40;0.83;;;;;;;8.37;86.14;95973.25;4980481;28;20625;-70
2023/01/13 02:01:35;;;;;;;1.77;0.70;;;;;;;8.44;84.99;95975.03;4981996;28;20305;-69
2023/01/13 02:04:09;;;;;;;0.83;0.40;;;;;;;8.64;84.44;95979.72;4979612;28;20195;-70
2023/01/13 02:06:38;;;;;;;1.63;0.77;;;;;;;8.53;84.81;95968.78;4981230;28;20242;-71
2023/01/13 02:09:05;;;;;;;4.40;0.87;;;;;;;8.59;84.52;95976.78;4980871;28;20266;-70
2023/01/13 02:14:17;;;;;;;1.20;0.70;;;;;;;8.64;84.24;95974.47;4978988;28;20230;-70
2023/01/13 02:16:54;;;;;;;1.00;0.50;;;;;;;8.72;84.13;95966.53;4980635;28;20886;-70
2023/01/13 02:19:46;;;;;;;2.90;0.70;;;;;;;8.81;83.34;95964.69;4979700;28;20730;-69
2023/01/13 02:22:26;;;;;;;0.70;0.57;;;;;;;8.75;82.90;95958.28;4980431;28;20265;-69
2023/01/13 02:25:24;;;;;;;2.20;0.50;;;;;;;8.79;81.86;95954.34;4979611;28;20638;-70
2023/01/13 02:28:03;;;;;;;1.50;0.53;;;;;;;8.67;82.38;95958.34;4979972;28;20310;-70
2023/01/13 02:33:46;;;;;;;3.37;0.80;;;;;;;8.82;81.32;95943.50;4979900;28;20787;-71
2023/01/13 02:36:20;;;;;;;0.90;0.50;;;;;;;8.58;82.04;95935.75;4979586;28;20206;-69
2023/01/13 02:38:51;;;;;;;3.13;0.60;;;;;;;8.70;81.62;95933.53;4979980;28;20211;-70
2023/01/13 02:44:12;;;;;;;3.23;0.73;;;;;;;8.61;80.39;95927.50;4978738;28;20663;-70
2023/01/13 02:46:48;;;;;;;0.77;0.50;;;;;;;8.62;81.03;95920.47;4979782;28;20235;-69
2023/01/13 02:49:23;;;;;;;2.30;0.70;;;;;;;8.73;80.17;95913.00;4979210;28;20198;-71
2023/01/13 02:51:52;;;;;;;2.20;0.80;;;;;;;8.72;79.36;95918.44;4979577;28;20202;-69
2023/01/13 02:54:22;;;;;;;1.33;0.67;;;;;;;8.72;79.65;95915.81;4978778;28;20231;-70
2023/01/13 02:56:50;;;;;;;1.23;0.70;;;;;;;8.71;79.54;95914.97;4979877;28;20219;-68
2023/01/13 02:59:19;;;;;;;1.10;0.50;;;;;;;8.62;79.50;95908.16;4979101;28;20199;-70
2023/01/13 03:01:48;;;;;;;2.23;0.60;;;;;;;8.71;79.40;95907.09;4979584;28;20199;-70
2023/01/13 03:04:46;;;;;;;0.30;0.30;;;;;;;8.84;78.11;95902.09;4979720;28;20207;-69
2023/01/13 03:07:22;;;;;;;0.53;0.50;;;;;;;8.76;78.89;95896.91;4979185;28;20649;-69
2023/01/13 03:09:57;;;;;;;0.80;0.70;;;;;;;8.84;78.56;95894.22;4979821;28;20214;-68
2023/01/13 03:12:37;;;;;;;0.97;0.70;;;;;;;8.72;79.27;95890.38;4979838;28;20216;-70
2023/01/13 03:15:10;;;;;;;0.93;0.50;;;;;;;8.80;79.22;95892.94;4978488;28;20285;-70
2023/01/13 03:17:42;;;;;;;0.60;0.60;;;;;;;8.71;79.87;95899.22;4978982;28;20226;-70
2023/01/13 03:20:16;;;;;;;0.50;0.50;;;;;;;8.78;79.56;95889.69;4979008;28;20214;-69
2023/01/13 03:22:51;;;;;;;0.63;0.50;;;;;;;8.86;79.13;95892.25;4979322;28;20210;-69
2023/01/13 03:25:24;;;;;;;0.50;0.40;;;;;;;8.76;79.56;95886.38;4978428;28;20234;-68
2023/01/13 03:27:55;;;;;;;2.87;0.70;;;;;;;8.85;79.83;95892.41;4978806;28;20238;-71
2023/01/13 03:30:27;;;;;;;1.10;0.40;;;;;;;8.85;78.74;95893.22;4978818;28;20273;-71
2023/01/13 03:33:00;;;;;;;1.73;0.90;;;;;;;8.98;78.03;95880.31;4979283;28;20559;-70
2023/01/13 03:35:30;;;;;;;1.43;0.73;;;;;;;8.80;78.72;95887.66;4978061;28;21066;-68
2023/01/13 03:38:02;;;;;;;0.70;0.70;;;;;;;8.91;78.40;95892.53;4979274;28;20218;-69
2023/01/13 03:40:32;;;;;;;2.50;0.73;;;;;;;8.92;78.35;95881.00;4978558;28;20207;-69
2023/01/13 03:45:51;;;;;;;0.40;0.40;;;;;;;8.79;78.70;95870.28;4978072;28;20358;-69
2023/01/13 03:48:22;;;;;;;0.93;0.60;;;;;;;8.87;78.21;95877.28;4979128;28;20219;-69
2023/01/13 03:50:51;;;;;;;2.37;0.57;;;;;;;8.92;77.66;95865.25;4978170;28;20212;-69
2023/01/13 03:53:22;;;;;;;1.57;0.60;;;;;;;8.91;78.11;95873.31;4976874;28;20203;-70
2023/01/13 03:55:55;;;;;;;1.13;0.70;;;;;;;8.90;77.94;95866.44;4978378;28;20231;-70
2023/01/13 03:58:25;;;;;;;1.90;0.60;;;;;;;8.96;78.47;95863.09;4977909;28;20233;-70
2023/01/13 04:00:56;;;;;;;0.40;0.40;;;;;;;8.83;79.14;95871.56;4978439;28;20207;-70
2023/01/13 04:03:31;;;;;;;2.30;0.70;;;;;;;8.92;78.68;95860.00;4978669;28;20211;-69
2023/01/13 04:06:04;;;;;;;0.80;0.60;;;;;;;8.99;78.58;95855.69;4978086;28;20218;-70
2023/01/13 04:08:33;;;;;;;1.47;0.70;;;;;;;9.00;78.82;95857.31;4978524;28;20196;-69
2023/01/13 04:11:05;;;;;;;1.33;0.63;;;;;;;9.10;78.83;95850.81;4977905;28;20218;-69
2023/01/13 04:13:37;;;;;;;3.17;0.80;;;;;;;9.05;79.46;95849.72;4977473;28;20213;-69
2023/01/13 04:16:06;;;;;;;2.60;0.83;;;;;;;9.09;79.29;95861.50;4978101;28;20215;-69
2023/01/13 04:18:37;;;;;;;1.97;1.10;;;;;;;9.04;79.35;95858.59;4979046;28;20199;-69
2023/01/13 04:21:04;;;;;;;1.30;0.90;;;;;;;9.01;79.10;95858.94;4978176;28;20691;-69
2023/01/13 04:23:31;;;;;;;0.77;0.60;;;;;;;9.02;78.79;95860.56;4977545;28;20195;-70
2023/01/13 04:25:58;;;;;;;4.27;1.40;;;;;;;9.05;78.85;95870.75;4978282;28;20195;-71
2023/01/13 04:28:26;;;;;;;1.40;0.70;;;;;;;9.07;78.66;95867.94;4978145;28;20226;-70
2023/01/13 04:30:53;;;;;;;1.60;0.90;;;;;;;9.04;79.03;95876.16;4977876;28;20294;-69
2023/01/13 04:33:19;;;;;;;2.03;1.13;;;;;;;9.03;79.21;95877.97;4977734;28;20214;-70
2023/01/13 04:35:47;;;;;;;2.60;1.00;;;;;;;9.20;78.63;95882.09;4977225;28;20222;-70
2023/01/13 04:38:18;;;;;;;1.97;0.70;;;;;;;9.28;78.24;95874.19;4977480;28;20226;-70
2023/01/13 04:40:45;;;;;;;1.53;0.80;;;;;;;9.12;78.91;95876.94;4978623;28;20576;-70
2023/01/13 04:43:14;;;;;;;2.73;1.40;;;;;;;9.11;78.96;95870.84;4977900;28;20199;-71
2023/01/13 04:45:41;;;;;;;0.83;0.63;;;;;;;9.07;78.64;95873.19;4977371;28;20208;-71
2023/01/13 04:48:07;;;;;;;0.97;0.80;;;;;;;9.03;78.67;95869.28;4977347;28;20223;-70
2023/01/13 04:50:34;;;;;;;4.63;1.20;;;;;;;9.10;79.34;95868.41;4978217;28;20206;-69
2023/01/13 04:53:02;;;;;;;3.80;0.73;;;;;;;9.15;78.96;95871.31;4977012;28;20204;-69
2023/01/13 04:55:30;;;;;;;3.83;1.43;;;;;;;9.10;78.89;95865.78;4977228;28;20229;-69
2023/01/13 04:58:01;;;;;;;11.10;2.20;;;;;;;9.25;78.88;95862.19;4977886;28;20230;-69
2023/01/13 05:00:28;;;;;;;2.20;0.57;;;;;;;9.03;79.46;95864.03;4976115;28;20203;-69
2023/01/13 05:02:54;;;;;;;2.13;0.80;;;;;;;9.08;79.54;95874.84;4977303;28;20211;-70
2023/01/13 05:05:20;;;;;;;10.60;3.57;;;;;;;9.04;79.92;95863.03;4976994;28;20675;-69
2023/01/13 05:07:47;;;;;;;3.00;1.47;;;;;;;9.08;80.23;95853.81;4978008;28;20233;-69
2023/01/13 05:10:15;;;;;;;0.60;0.60;;;;;;;9.06;80.37;95856.59;4977721;28;20203;-69
2023/01/13 05:18:10;;;;;;;2.60;1.33;;;;;;;9.02;80.82;95855.31;4980749;28;20293;-70
2023/01/13 05:20:36;;;;;;;1.80;0.40;;;;;;;8.90;81.92;95840.97;4981447;28;20211;-70
2023/01/13 05:25:49;;;;;;;0.87;0.80;;;;;;;9.06;81.97;95835.56;4980476;28;20214;-70
2023/01/13 05:28:16;;;;;;;2.57;0.40;;;;;;;9.01;82.29;95847.63;4980424;28;20231;-71
2023/01/13 05:30:44;;;;;;;6.97;1.50;;;;;;;9.09;82.25;95843.13;4982643;28;20203;-69
2023/01/13 05:33:12;;;;;;;1.00;0.50;;;;;;;8.98;82.86;95847.97;4980904;28;20790;-69
2023/01/13 05:35:39;;;;;;;1.70;0.70;;;;;;;9.00;83.02;95848.59;4979955;28;20754;-70
2023/01/13 05:38:06;;;;;;;2.37;1.00;;;;;;;8.96;83.34;95845.53;4980677;28;20223;-70
2023/01/13 05:43:19;;;;;;;1.83;0.80;;;;;;;9.00;83.90;95835.47;4980396;28;20242;-70
2023/01/13 05:45:47;;;;;;;2.37;0.70;;;;;;;8.89;84.74;95838.53;4980435;28;20349;-70
2023/01/13 05:48:14;;;;;;;2.40;0.90;;;;;;;8.96;84.61;95845.53;4980915;28;20223;-70
2023/01/13 05:50:41;;;;;;;0.50;0.40;;;;;;;8.90;84.41;95838.34;4981699;28;20205;-70
2023/01/13 05:53:07;;;;;;;1.73;0.73;;;;;;;8.93;84.98;95848.50;4981052;28;20214;-69
2023/01/13 05:55:34;;;;;;;4.23;0.40;;;;;;;8.83;85.43;95837.41;4980046;28;20242;-69
2023/01/13 05:58:00;;;;;;;0.63;0.50;;;;;;;8.91;85.53;95860.16;4980818;28;20219;-68
2023/01/13 06:00:28;;;;;;;2.33;0.60;;;;;;;8.96;85.62;95863.94;4980763;28;20199;-68
2023/01/13 06:02:54;;;;;;;0.77;0.60;;;;;;;9.02;85.28;95862.41;4981089;28;20203;-68
2023/01/13 06:05:21;;;;;;;1.10;0.63;;;;;;;8.90;85.67;95877.75;4979359;28;20219;-71
2023/01/13 06:07:47;;;;;;;0.50;0.50;;;;;;;8.89;86.30;95878.75;4980548;28;20231;-70
2023/01/13 06:10:14;;;;;;;2.03;0.67;;;;;;;8.93;86.36;95871.34;4980387;28;20207;-70
2023/01/13 06:12:40;;;;;;;1.47;0.70;;;;;;;9.03;86.42;95867.47;4980331;28;20214;-69
2023/01/13 06:15:07;;;;;;;1.17;0.70;;;;;;;9.09;86.82;95866.78;4979201;28;20230;-71
2023/01/13 06:17:35;;;;;;;1.93;0.60;;;;;;;9.04;87.33;95874.38;4980427;28;20615;-70
2023/01/13 06:20:02;;;;;;;0.40;0.37;;;;;;;9.02;87.62;95863.19;4979725;28;20207;-69
2023/01/13 06:22:31;;;;;;;1.10;0.53;;;;;;;9.07;88.51;95860.06;4979718;28;20211;-70
2023/01/13 06:24:58;;;;;;;0.73;0.67;;;;;;;8.99;89.00;95860.94;4979841;28;20261;-69
2023/01/13 06:27:25;;;;;;;1.07;0.60;;;;;;;8.89;89.99;95855.09;4979907;28;20222;-70
2023/01/13 06:29:51;;;;;;;1.57;0.60;;;;;;;8.95;90.18;95857.03;4980047;28;20211;-68
2023/01/13 06:32:23;;;;;;;0.97;0.50;;;;;;;9.08;90.27;95848.56;4980396;28;20207;-69
2023/01/13 06:34:53;;;;;;;1.27;0.83;;;;;;;9.02;90.74;95849.25;4979197;28;20226;-69
2023/01/13 06:37:24;;;;;;;0.63;0.63;;;;;;;9.06;91.27;95859.22;4979484;28;20227;-69
2023/01/13 06:39:51;;;;;;;1.80;0.73;;;;;;;8.92;91.93;95854.72;4979973;28;20207;-68
2023/01/13 06:45:01;;;;;;;0.30;0.30;;;;;;;8.92;91.94;95846.84;4979185;28;20645;-69
2023/01/13 06:47:28;;;;;;;0.67;0.50;;;;;;;8.95;92.48;95846.53;4979129;28;20223;-70
2023/01/13 06:49:58;;;;;;;1.63;0.40;;;;;;;8.98;92.21;95842.72;4980709;28;20207;-68
2023/01/13 06:52:26;;;;;;;0.90;0.63;;;;;;;9.00;92.36;95836.28;4980030;28;20518;-69
2023/01/13 06:54:52;;;;;;;0.63;0.63;;;;;;;8.96;92.48;95835.03;4979548;28;20234;-69
2023/01/13 06:57:19;;;;;;;2.23;0.70;;;;;;;8.97;92.93;95830.56;4979317;28;20223;-69
2023/01/13 06:59:45;;;;;;;0.60;0.60;;;;;;;9.01;92.74;95837.09;4979633;28;20208;-68
2023/01/13 07:02:11;;;;;;;0.60;0.40;;;;;;;8.97;93.08;95835.81;4979206;28;20207;-69
2023/01/13 07:04:38;;;;;;;2.30;0.63;;;;;;;8.95;92.84;95838.63;4978715;28;20210;-69
2023/01/13 07:07:06;;;;;;;0.30;0.30;;;;;;;8.99;93.07;95829.41;4979641;28;20230;-69
2023/01/13 07:09:33;;;;;;;0.40;0.40;;;;;;;8.89;93.28;95822.75;4979607;28;20277;-69
2023/01/13 07:11:59;;;;;;;0.40;0.40;;;;;;;9.01;92.44;95827.41;4978590;28;20207;-69
2023/01/13 07:17:10;;;;;;;4.83;0.50;;;;;;;9.02;92.79;95851.88;4977487;28;20316;-70
2023/01/13 07:19:36;;;;;;;3.30;0.60;;;;;;;8.97;92.86;95834.00;4978756;28;20211;-69
2023/01/13 07:22:03;;;;;;;1.07;0.50;;;;;;;9.03;92.46;95829.88;4978920;28;20203;-69
2023/01/13 07:24:30;;;;;;;0.73;0.40;;;;;;;9.04;92.89;95836.75;4978444;28;20203;-69
2023/01/13 07:26:57;;;;;;;1.53;0.53;;;;;;;8.96;92.90;95834.19;4977419;28;20231;-70
2023/01/13 07:29:23;;;;;;;5.73;2.83;;;;;;;8.95;93.32;95843.88;4978302;28;20199;-68
2023/01/13 07:31:50;;;;;;;0.93;0.60;;;;;;;8.93;93.17;95840.59;4978327;28;20295;-69
2023/01/13 07:34:16;;;;;;;3.43;1.23;;;;;;;9.02;92.61;95839.53;4977060;28;20195;-70
2023/01/13 07:36:43;;;;;;;4.53;0.60;;;;;;;9.03;92.47;95853.53;4977901;28;20231;-69
2023/01/13 07:39:09;;;;;;;3.70;0.90;;;;;;;9.05;92.51;95857.63;4978001;28;20206;-69
2023/01/13 07:44:21;;;;;;;0.40;0.40;;;;;;;9.11;92.16;95870.03;4976995;28;20747;-69
2023/01/13 07:46:47;;;;;;;3.43;0.80;;;;;;;9.21;92.16;95881.13;4978177;28;20219;-69
2023/01/13 07:49:14;;;;;;;2.87;1.70;;;;;;;9.24;91.83;95875.50;4977756;28;20199;-69
2023/01/13 07:51:40;;;;;;;3.40;1.07;;;;;;;9.12;92.28;95861.97;4977975;28;20203;-69
2023/01/13 07:54:07;;;;;;;1.07;0.70;;;;;;;9.20;91.98;95875.06;4977403;28;20203;-69
2023/01/13 07:56:33;;;;;;;1.13;0.93;;;;;;;9.17;92.18;95874.59;4977617;28;20223;-69
2023/01/13 07:59:01;;;;;;;2.10;0.87;;;;;;;9.24;92.00;95875.50;4973689;28;20423;-69
2023/01/13 08:01:30;;;;;;;1.37;0.80;;;;;;;9.21;92.40;95886.38;4977321;28;20210;-69
2023/01/13 08:03:57;;;;;;;0.90;0.53;;;;;;;9.26;91.78;95876.94;4976988;28;20214;-69
2023/01/13 08:06:24;;;;;;;0.23;0.23;;;;;;;9.25;92.05;95877.13;4976890;28;20222;-70
2023/01/13 08:08:51;;;;;;;1.97;0.70;;;;;;;9.32;92.06;95878.06;4976976;28;20199;-70
2023/01/13 08:11:17;;;;;;;2.23;0.70;;;;;;;9.28;92.35;95876.81;4973280;28;21001;-70
2023/01/13 08:13:44;;;;;;;1.53;0.60;;;;;;;9.26;92.70;95879.59;4974329;28;20246;-69
2023/01/13 08:16:13;;;;;;;0.53;0.53;;;;;;;9.45;91.85;95892.25;4937971;28;1042734;-69
2023/01/13 08:18:41;;;;;;;0.93;0.77;;;;;;;9.46;91.69;95883.34;4973812;28;20226;-69
2023/01/13 08:21:09;;;;;;;1.27;0.70;;;;;;;9.45;92.22;95873.03;4973360;28;20214;-69
2023/01/13 08:23:36;;;;;;;1.87;0.70;;;;;;;9.41;92.19;95887.53;4972065;28;20199;-69
2023/01/13 08:26:04;;;;;;;1.50;0.67;;;;;;;9.41;92.76;95885.69;4975724;28;20226;-69
2023/01/13 08:28:31;;;;;;;0.57;0.53;;;;;;;9.39;92.47;95897.41;4975667;28;21402;-70
2023/01/13 08:31:00;;;;;;;0.57;0.50;;;;;;;9.45;92.68;95892.25;4975388;28;20214;-70
2023/01/13 08:33:27;;;;;;;5.53;0.87;;;;;;;9.47;92.57;95892.88;4974871;28;20234;-69
2023/01/13 08:35:55;;;;;;;1.57;0.70;;;;;;;9.42;92.49;95900.50;4974959;28;21001;-69
2023/01/13 08:38:22;;;;;;;1.00;0.50;;;;;;;9.52;92.68;95908.13;4974678;28;20873;-70
2023/01/13 08:40:49;;;;;;;1.60;0.50;;;;;;;9.40;92.74;95901.66;4974598;28;20214;-69
2023/01/13 08:43:15;;;;;;;2.23;0.63;;;;;;;9.58;92.00;95899.53;4975189;28;20238;-69
2023/01/13 08:45:42;;;;;;;0.70;0.60;;;;;;;9.59;91.83;95901.16;4972936;28;21064;-69
2023/01/13 08:48:08;;;;;;;2.60;1.10;;;;;;;9.55;92.31;95899.91;4975071;28;20598;-69
2023/01/13 08:50:36;;;;;;;1.33;0.60;;;;;;;9.62;92.41;95906.06;4974122;28;20215;-69
2023/01/13 08:53:03;;;;;;;0.87;0.50;;;;;;;9.53;92.40;95896.59;4975821;28;20226;-69
2023/01/13 08:55:29;;;;;;;0.80;0.50;;;;;;;9.62;92.26;95901.59;4975325;28;20227;-69
2023/01/13 08:57:56;;;;;;;0.40;0.40;;;;;;;9.67;92.43;95903.72;4975853;28;20233;-70
2023/01/13 09:00:22;;;;;;;0.80;0.70;;;;;;;9.61;92.42;95888.63;4975977;28;21217;-69
2023/01/13 09:02:49;;;;;;;0.37;0.37;;;;;;;9.68;92.08;95890.38;4976073;28;21059;-69
2023/01/13 09:05:15;;;;;;;0.70;0.50;;;;;;;9.60;92.24;95897.50;4975294;28;20201;-69
2023/01/13 09:07:43;;;;;;;12.73;0.60;;;;;;;9.85;91.72;95897.94;4975977;28;20234;-70
2023/01/13 09:10:10;;;;;;;0.50;0.50;;;;;;;9.77;91.67;95900.63;4975984;28;20743;-69
2023/01/13 09:15:21;;;;;;;0.57;0.40;;;;;;;9.98;90.93;95907.84;4974947;28;20226;-70
2023/01/13 09:17:48;;;;;;;2.83;0.70;;;;;;;10.10;90.21;95901.94;4976035;28;20219;-69
2023/01/13 09:20:15;;;;;;;0.87;0.60;;;;;;;10.06;90.54;95911.22;4975741;28;20226;-69
2023/01/13 09:22:41;;;;;;;0.43;0.43;;;;;;;10.19;90.07;95898.22;4976302;28;20199;-69
2023/01/13 09:25:11;;;;;;;1.27;0.77;;;;;;;10.34;90.08;95899.84;4975146;28;20238;-69
2023/01/13 09:27:38;;;;;;;3.20;0.90;;;;;;;10.09;90.28;95917.94;4975466;28;20234;-69
2023/01/13 09:30:06;;;;;;;0.63;0.40;;;;;;;10.07;90.55;95923.38;4975452;28;20203;-68
2023/01/13 09:32:32;;;;;;;0.83;0.80;;;;;;;10.02;90.95;95920.47;4975864;28;20573;-69
2023/01/13 09:35:01;;;;;;;2.03;0.80;;;;;;;10.00;91.07;95922.44;4975184;28;20293;-69
2023/01/13 09:37:28;;;;;;;4.00;1.07;;;;;;;10.06;90.62;95919.09;4975013;28;20231;-69
2023/01/13 09:39:55;;;;;;;1.90;1.00;;;;;;;10.15;90.97;95910.13;4975509;28;20207;-69
2023/01/13 09:45:21;;;;;;;0.70;0.70;;;;;;;10.48;89.70;95916.63;4974426;28;20698;-69
2023/01/13 09:47:55;;;;;;;1.37;0.87;;;;;;;10.41;90.26;95913.09;4975692;28;20223;-69
2023/01/13 09:50:33;;;;;;;0.50;0.50;;;;;;;10.61;89.06;95922.06;4976473;28;20258;-69
2023/01/13 09:53:00;;;;;;;0.60;0.60;;;;;;;10.51;88.70;95929.44;4975721;28;20318;-69
2023/01/13 09:55:32;;;;;;;0.93;0.57;;;;;;;10.44;89.23;95920.63;4972456;28;20688;-68
2023/01/13 09:58:02;;;;;;;0.57;0.57;;;;;;;10.46;89.26;95914.19;4974149;28;20932;-69
2023/01/13 10:00:35;;;;;;;1.13;0.80;;;;;;;10.50;89.39;95927.78;4978488;28;20210;-69
2023/01/13 10:03:19;;;;;;;4.63;1.17;;;;;;;10.58;88.96;95935.63;4977718;28;20207;-69
2023/01/13 10:05:50;;;;;;;3.67;0.80;;;;;;;10.43;89.32;95930.34;4977855;28;20199;-69
2023/01/13 10:08:23;;;;;;;3.47;1.23;;;;;;;10.68;88.99;95938.75;4977734;28;20221;-69
2023/01/13 10:10:52;;;;;;;4.03;1.33;;;;;;;10.62;88.98;95926.34;4978426;28;20211;-69
2023/01/13 10:13:22;;;;;;;3.30;1.33;;;;;;;10.62;88.80;95928.97;4978147;28;20203;-68
2023/01/13 10:15:59;;;;;;;0.93;0.80;;;;;;;10.62;88.95;95921.88;4977041;28;20231;-69
2023/01/13 10:18:30;;;;;;;1.70;0.77;;;;;;;10.54;89.23;95921.19;4977974;28;20219;-69
2023/01/13 10:21:05;;;;;;;1.23;0.70;;;;;;;10.58;89.37;95939.06;4979501;28;20200;-68
2023/01/13 10:23:56;;;;;;;0.60;0.60;;;;;;;10.54;88.93;95919.34;4979271;28;20195;-69
2023/01/13 10:26:44;;;;;;;1.13;0.77;;;;;;;10.65;88.44;95923.31;4979207;28;20219;-69
2023/01/13 10:29:24;;;;;;;0.77;0.50;;;;;;;10.58;88.70;95917.16;4979622;28;20200;-69
2023/01/13 10:31:52;;;;;;;0.70;0.70;;;;;;;10.56;89.09;95905.97;4979242;28;20207;-68
2023/01/13 10:34:19;;;;;;;0.93;0.77;;;;;;;10.59;89.43;95913.50;4977326;28;20207;-69
2023/01/13 10:37:00;;;;;;;0.47;0.47;;;;;;;10.79;88.34;95919.84;4979171;28;20804;-69
2023/01/13 10:39:27;;;;;;;0.80;0.60;;;;;;;10.51;89.14;95918.88;4979431;28;20242;-69
2023/01/13 10:42:05;;;;;;;3.70;0.80;;;;;;;10.70;89.02;95915.69;4979904;28;20215;-68
2023/01/13 10:44:46;;;;;;;1.27;1.00;;;;;;;10.63;89.58;95931.41;4978320;28;20226;-69
2023/01/13 10:47:20;;;;;;;0.53;0.50;;;;;;;10.75;89.59;95937.03;4979725;28;20219;-69
2023/01/13 10:49:59;;;;;;;0.50;0.50;;;;;;;10.53;89.49;95925.59;4979926;28;20210;-69
2023/01/13 10:52:28;;;;;;;0.67;0.67;;;;;;;10.42;90.76;95928.72;4979502;28;20206;-69
2023/01/13 10:54:55;;;;;;;1.07;0.80;;;;;;;10.41;91.10;95928.88;4978489;28;20228;-69
2023/01/13 10:57:24;;;;;;;0.40;0.40;;;;;;;10.35;91.64;95919.91;4979252;28;20322;-69
2023/01/13 10:59:52;;;;;;;1.00;0.70;;;;;;;10.47;91.17;95925.53;4978200;28;20299;-69
2023/01/13 11:02:25;;;;;;;0.40;0.40;;;;;;;10.43;90.91;95905.81;4979377;28;20210;-68
2023/01/13 11:05:02;;;;;;;0.40;0.40;;;;;;;10.56;91.00;95909.41;4979359;28;20207;-69
2023/01/13 11:07:31;;;;;;;3.50;0.77;;;;;;;10.55;91.12;95913.09;4979531;28;20628;-69
2023/01/13 11:10:06;;;;;;;0.40;0.40;;;;;;;10.75;90.25;95916.75;4978063;28;20207;-69
2023/01/13 11:12:34;;;;;;;2.27;0.80;;;;;;;10.92;90.23;95919.97;4979703;28;20202;-69
2023/01/13 11:15:08;;;;;;;0.40;0.40;;;;;;;10.85;89.99;95921.75;4978201;28;20234;-70
2023/01/13 11:17:44;;;;;;;0.30;0.30;;;;;;;10.71;90.87;95925.22;4979467;28;20312;-69
2023/01/13 11:20:19;;;;;;;0.40;0.40;;;;;;;10.63;91.38;95910.34;4978907;28;20198;-69
2023/01/13 11:22:47;;;;;;;0.30;0.30;;;;;;;10.46;91.81;95921.25;4979590;28;20265;-69
2023/01/13 11:25:20;;;;;;;0.40;0.40;;;;;;;10.57;91.61;95915.53;4978330;28;20203;-68
2023/01/13 11:27:54;;;;;;;0.40;0.40;;;;;;;10.62;91.53;95921.06;4979623;28;20981;-68
2023/01/13 11:30:28;;;;;;;1.17;0.70;;;;;;;10.64;92.01;95919.03;4978763;28;20282;-68
2023/01/13 11:33:16;;;;;;;0.77;0.57;;;;;;;10.81;91.41;95923.13;4978710;28;20214;-69
2023/01/13 11:35:48;;;;;;;0.97;0.43;;;;;;;10.77;90.40;95933.22;4978951;28;20206;-68
2023/01/13 11:38:26;;;;;;;0.97;0.70;;;;;;;10.82;90.57;95925.56;4978853;28;20309;-69
2023/01/13 11:40:52;;;;;;;0.70;0.60;;;;;;;10.69;91.42;95927.22;4978599;28;20218;-69
2023/01/13 11:43:29;;;;;;;0.40;0.40;;;;;;;10.68;91.66;95922.94;4978609;28;20234;-69
2023/01/13 11:45:59;;;;;;;0.97;0.40;;;;;;;10.76;92.09;95914.94;4978565;28;20207;-69
2023/01/13 11:48:29;;;;;;;0.30;0.30;;;;;;;11.02;91.12;95916.88;4978853;28;20227;-70
2023/01/13 11:51:03;;;;;;;0.83;0.60;;;;;;;11.08;91.06;95913.47;4978646;28;20215;-69
2023/01/13 11:53:55;;;;;;;0.50;0.50;;;;;;;11.22;89.77;95911.78;4978260;28;20203;-69
2023/01/13 11:56:39;;;;;;;1.03;0.67;;;;;;;11.24;90.11;95912.38;4978314;28;20227;-69
2023/01/13 11:59:26;;;;;;;0.77;0.40;;;;;;;11.00;90.64;95908.31;4978180;28;20258;-69
2023/01/13 12:02:07;;;;;;;0.40;0.40;;;;;;;11.04;90.55;95903.50;4978284;28;20211;-69
2023/01/13 12:04:43;;;;;;;0.40;0.40;;;;;;;10.94;90.12;95902.97;4977717;28;20206;-69
2023/01/13 12:07:17;;;;;;;0.80;0.50;;;;;;;11.18;90.32;95890.22;4978400;28;20218;-69
2023/01/13 12:09:55;;;;;;;0.50;0.40;;;;;;;11.13;88.98;95884.72;4978680;28;20203;-69
2023/01/13 12:12:35;;;;;;;0.53;0.33;;;;;;;11.27;89.35;95891.75;4977829;28;20203;-68
2023/01/13 12:15:38;;;;;;;0.40;0.33;;;;;;;11.15;88.72;95898.53;4978372;28;20559;-69
2023/01/13 12:18:51;;;;;;;1.13;0.77;;;;;;;11.19;88.33;95880.53;4978331;28;20719;-68
2023/01/13 12:21:22;;;;;;;2.77;1.10;;;;;;;11.01;89.48;95888.84;4936318;28;20200;-69
2023/01/13 12:23:59;;;;;;;1.17;0.80;;;;;;;11.03;89.53;95876.28;4936684;28;20219;-69
2023/01/13 12:26:28;;;;;;;3.37;1.77;;;;;;;10.86;89.19;95884.66;4962462;28;20222;-69
2023/01/13 12:28:59;;;;;;;1.93;0.50;;;;;;;10.92;89.48;95891.81;4978023;28;20215;-68
2023/01/13 12:31:27;;;;;;;0.93;0.50;;;;;;;10.84;89.61;95941.19;4977566;28;20200;-69